Date,TemperatureHighF,TemperatureAvgF,TemperatureLowF,DewpointHighF,DewpointAvgF,DewpointLowF,HumidityHigh,HumidityAvg,HumidityLow,PressureMaxIn,PressureMinIn,WindSpeedMaxMPH,WindSpeedAvgMPH,GustSpeedMaxMPH,PrecipitationSumIn
2013-1-1,22,15,8,19,12,3,93,87,78,30.33,30.07,11,1,11,0.00
2013-1-2,32,24,10,28,22,7,94,89,84,30.24,30.02,12,2,13,0.00
2013-1-3,27,17,8,23,13,5,90,85,78,30.41,30.24,15,2,15,0.00
2013-1-4,30,18,8,18,12,5,89,79,59,30.24,30.12,8,0,8,0.00
2013-1-5,28,15,3,20,11,0,93,84,70,30.25,30.01,18,3,18,0.00
2013-1-6,28,18,7,22,14,4,92,83,68,30.32,29.97,15,2,15,0.00
2013-1-7,39,28,15,27,22,13,94,81,60,30.03,29.94,10,1,10,0.00
2013-1-8,34,24,11,30,20,8,96,88,81,30.10,29.78,8,1,8,0.00
2013-1-9,41,33,24,30,28,21,93,81,63,30.38,30.10,12,2,12,0.00
2013-1-10,40,34,30,34,30,26,97,86,58,30.24,29.60,16,3,16,0.00
2013-1-11,37,32,18,37,32,14,99,97,87,29.63,29.34,18,3,18,0.00
2013-1-12,18,10,6,14,5,1,87,79,70,30.22,29.63,18,5,18,0.00
2013-1-13,14,8,4,7,2,-1,89,78,67,30.36,30.18,11,2,11,0.00
2013-1-14,25,14,5,15,9,2,91,80,64,30.49,30.33,6,0,9,0.00
2013-1-15,30,20,10,16,11,6,88,70,46,30.33,29.90,13,1,13,0.00
2013-1-16,43,30,15,34,25,10,92,81,68,30.30,29.81,15,2,15,0.00
2013-1-17,33,25,14,28,19,6,94,80,59,30.44,30.17,12,1,12,0.00
2013-1-18,47,36,29,33,29,25,91,77,57,30.17,29.81,14,2,14,0.00
2013-1-19,42,30,8,34,22,0,86,73,60,30.38,29.78,25,4,25,0.00
2013-1-20,29,14,0,17,8,-7,83,74,60,30.50,30.13,12,2,18,0.00
2013-1-21,22,13,-1,15,6,-6,78,73,67,30.48,30.36,11,2,11,0.00
2013-1-22,14,10,3,10,3,-3,83,74,62,30.46,30.25,9,1,9,0.00
2013-1-23,17,9,-2,11,3,-10,89,77,62,30.64,30.22,13,2,13,0.00
2013-1-24,15,5,-4,7,-3,-12,74,70,65,30.69,30.17,17,3,17,0.00
2013-1-25,27,16,7,22,10,0,87,76,63,30.34,30.13,15,2,15,0.00
2013-1-26,33,19,5,26,12,-1,78,74,66,30.34,30.01,14,2,14,0.00
2013-1-27,35,34,32,34,31,25,99,90,76,30.01,29.73,13,1,13,0.00
2013-1-28,35,34,33,35,34,32,99,99,98,29.85,29.60,7,0,7,0.00
2013-1-29,36,30,23,33,27,19,99,88,72,29.85,29.60,14,3,14,0.00
2013-1-30,23,14,0,20,9,-6,86,80,73,29.98,29.80,18,5,18,0.00
2013-1-31,0,-4,-7,-6,-11,-13,78,74,68,30.50,29.98,19,5,19,0.00
2013-2-1,23,8,-7,18,2,-12,84,78,71,30.48,30.07,12,1,12,0.00
2013-2-2,36,22,15,33,17,9,96,83,76,30.23,30.02,21,3,21,0.00
2013-2-3,38,24,13,31,18,8,88,79,68,30.21,29.83,14,2,14,0.00
2013-2-4,23,18,12,20,14,8,90,84,75,30.10,29.81,9,1,9,0.00
2013-2-5,38,30,23,31,26,20,94,85,74,30.07,29.77,16,2,16,0.00
2013-2-6,44,34,24,36,30,22,94,85,74,30.05,29.82,18,1,18,0.00
2013-2-7,33,27,23,30,25,20,95,90,85,30.31,29.96,11,2,11,0.00
2013-2-8,31,25,21,26,23,20,95,90,81,30.33,30.09,17,3,17,0.00
2013-2-9,44,34,26,36,31,24,93,87,70,30.10,29.69,24,3,24,0.00
2013-2-10,34,31,26,34,30,23,98,95,89,29.70,29.24,20,4,20,0.00
2013-2-11,26,23,22,23,20,19,91,87,82,30.13,29.68,22,4,22,0.00
2013-2-12,32,25,18,24,20,16,93,82,65,30.12,29.91,11,1,11,0.00
2013-2-13,41,32,21,33,28,19,95,83,67,29.91,29.66,11,1,11,0.00
2013-2-14,35,27,13,32,22,7,94,80,59,30.32,29.76,16,3,16,0.00
2013-2-15,24,16,8,19,11,6,90,83,70,30.43,30.32,9,1,9,0.00
2013-2-16,35,23,8,28,19,5,93,84,69,30.36,30.03,11,1,12,0.00
2013-2-17,46,34,22,35,28,20,91,81,63,30.03,29.52,17,3,17,0.00
2013-2-18,37,23,9,33,18,3,89,80,70,30.11,29.58,25,7,25,0.00
2013-2-19,9,4,-2,4,-2,-8,83,75,68,30.51,30.12,17,4,17,0.00
2013-2-20,24,10,-4,10,2,-9,80,68,50,30.52,30.33,12,2,12,0.00
2013-2-21,25,18,13,16,12,9,90,79,59,30.38,30.05,13,2,13,0.00
2013-2-22,25,19,11,20,15,8,91,87,79,30.05,29.98,11,2,12,0.00
2013-2-23,29,14,0,21,10,-3,93,83,70,30.00,29.87,7,0,7,0.00
2013-2-24,32,22,12,25,19,10,95,88,71,30.14,29.95,6,0,6,0.00
2013-2-25,31,24,17,25,21,15,95,90,78,30.15,30.02,8,0,8,0.00
2013-2-26,32,24,16,28,22,14,95,90,79,30.05,29.93,11,1,11,0.00
2013-2-27,36,27,21,26,22,17,92,80,60,30.15,30.00,19,4,19,0.00
2013-2-28,27,24,20,24,20,17,91,86,82,30.29,30.15,12,3,12,0.00
2013-3-1,29,22,10,20,17,8,90,81,67,30.43,30.28,10,1,10,0.00
2013-3-2,30,19,6,23,15,4,93,83,70,30.41,30.09,11,1,11,0.00
2013-3-3,35,29,22,30,24,18,90,84,76,30.09,29.75,18,3,18,0.00
2013-3-4,36,30,27,31,26,21,91,86,68,30.00,29.72,14,2,14,0.00
2013-3-5,27,24,20,24,20,16,92,84,77,30.43,29.96,21,5,21,0.00
2013-3-6,30,22,16,22,18,13,90,84,73,30.48,30.29,11,1,11,0.00
2013-3-7,41,29,19,32,24,17,93,84,68,30.31,30.12,16,3,16,0.00
2013-3-8,47,36,24,38,31,23,96,84,67,30.23,29.92,11,1,11,0.00
2013-3-9,39,35,31,38,34,28,99,97,90,29.95,29.63,18,2,18,0.00
2013-3-10,31,25,20,28,22,16,92,87,82,30.07,29.85,20,6,20,0.00
2013-3-11,31,23,14,24,18,10,87,79,62,30.03,29.89,16,2,16,0.00
2013-3-12,30,26,20,27,21,16,91,81,70,30.35,30.00,22,5,22,0.00
2013-3-13,38,26,13,26,19,11,92,76,49,30.44,30.18,14,2,14,0.00
2013-3-14,54,40,30,43,34,24,95,78,64,30.18,29.99,11,1,11,0.00
2013-3-15,42,37,32,37,34,31,97,89,79,29.98,29.78,11,1,11,0.00
2013-3-16,32,25,19,31,19,13,95,80,67,30.26,29.92,13,3,13,0.00
2013-3-17,34,25,15,31,19,10,94,79,65,30.26,29.68,18,4,18,0.00
2013-3-18,34,21,14,33,16,7,97,79,65,30.07,29.67,23,6,23,0.00
2013-3-19,30,18,8,19,10,3,81,71,56,30.42,30.05,15,3,16,0.00
2013-3-20,26,16,8,11,7,4,82,67,46,30.45,30.19,15,3,15,0.00
2013-3-21,38,23,10,19,12,4,81,64,39,30.20,30.00,11,1,11,0.00
2013-3-22,35,26,19,23,19,15,86,75,60,30.10,30.02,9,1,9,0.00
2013-3-23,33,29,26,26,24,21,88,82,75,30.19,30.10,13,1,13,0.00
2013-3-24,28,25,20,25,20,16,93,83,73,30.18,30.07,15,3,15,0.00
2013-3-25,29,25,18,21,19,13,91,80,65,30.38,30.18,15,4,15,0.00
2013-3-26,39,25,9,24,18,7,93,73,52,30.40,30.26,9,1,9,0.00
2013-3-27,50,36,25,32,27,21,87,70,47,30.30,30.20,14,2,14,0.00
2013-3-28,59,42,26,39,32,24,94,71,42,30.25,30.15,16,1,16,0.00
2013-3-29,66,49,30,44,37,28,97,67,39,30.20,29.93,17,2,17,0.00
2013-3-30,60,50,36,47,42,35,97,77,51,29.96,29.87,19,3,19,0.00
2013-3-31,42,34,24,35,27,17,98,78,52,30.22,29.91,17,3,17,0.00
2013-4-1,39,28,17,17,15,13,83,62,36,30.37,30.22,8,2,10,0.00
2013-4-2,51,34,17,26,21,14,94,62,35,30.34,30.27,9,1,10,0.00
2013-4-3,64,44,28,34,28,23,85,57,30,30.33,30.05,21,4,21,0.00
2013-4-4,56,45,33,34,29,24,85,55,33,30.18,30.01,15,2,15,0.00
2013-4-5,60,43,30,41,29,21,77,61,42,30.18,29.61,20,4,20,0.00
2013-4-6,63,51,39,42,39,34,90,65,44,29.78,29.47,17,4,17,0.00
2013-4-7,55,42,32,46,38,31,96,85,56,29.88,29.64,16,1,17,0.10
2013-4-8,54,44,37,49,42,35,99,94,82,29.92,29.62,15,2,15,0.00
2013-4-9,37,29,24,35,28,22,96,95,93,30.18,29.86,18,1,18,0.73
2013-4-10,31,30,28,30,29,26,98,95,93,30.14,29.86,0,0,0,0.01
2013-4-11,34,32,29,33,31,28,98,96,93,29.86,29.66,9,1,9,0.16
2013-4-12,32,30,26,30,28,23,96,90,81,29.98,29.74,13,3,13,0.06
2013-4-13,39,31,24,33,28,22,98,89,76,29.99,29.75,12,2,12,0.12
2013-4-14,42,37,34,42,34,28,99,92,77,29.75,29.33,17,4,17,0.01
2013-4-15,38,34,29,31,28,24,88,81,73,30.10,29.56,20,4,20,0.00
2013-4-16,42,35,29,32,28,26,90,78,60,30.30,30.08,9,2,10,0.00
2013-4-17,37,34,32,35,31,29,96,90,82,30.30,29.95,14,2,14,0.01
2013-4-18,33,31,28,31,29,24,96,93,86,29.96,29.79,19,6,19,0.02
2013-4-19,38,30,23,28,23,19,86,75,55,30.13,29.82,19,5,19,0.00
2013-4-20,40,31,18,33,24,16,95,78,53,30.26,30.13,12,2,12,0.00
2013-4-21,53,42,35,47,37,30,92,82,66,30.17,30.00,17,3,17,0.00
2013-4-22,36,32,27,33,29,24,97,92,86,30.33,30.12,15,3,15,0.00
2013-4-23,35,29,24,26,23,20,91,78,62,30.34,30.16,13,3,13,0.00
2013-4-24,48,35,26,38,29,22,92,79,63,30.16,29.98,21,2,21,0.01
2013-4-25,66,46,24,43,33,21,95,64,37,30.22,29.88,21,3,21,0.01
2013-4-26,72,59,45,42,37,32,71,47,24,30.11,29.90,13,2,15,0.00
2013-4-27,77,58,35,47,37,32,92,53,20,30.11,29.82,14,1,14,0.00
2013-4-28,86,65,52,52,47,41,81,56,21,29.82,29.57,18,4,18,0.00
2013-4-29,79,63,45,48,41,28,69,45,31,29.80,29.35,14,2,14,0.00
2013-4-30,68,60,52,52,39,25,78,49,24,29.99,29.29,16,4,16,0.00
2013-5-1,52,40,33,41,32,27,96,75,54,30.52,29.99,14,3,14,0.75
2013-5-2,52,41,33,30,26,18,74,56,28,30.65,30.45,21,4,21,0.00
2013-5-3,53,40,25,28,25,22,86,59,33,30.45,30.13,15,2,15,0.00
2013-5-4,42,39,36,38,34,26,95,84,54,30.20,30.10,13,2,13,0.05
2013-5-5,50,44,39,45,42,38,97,91,84,30.21,30.12,7,1,7,0.06
2013-5-6,64,51,45,51,46,43,93,82,57,30.15,30.01,5,0,5,0.00
2013-5-7,75,58,38,55,47,37,99,71,33,30.04,29.89,16,2,16,0.00
2013-5-8,66,58,55,60,56,51,99,91,75,29.92,29.85,13,1,13,0.76
2013-5-9,66,58,53,56,54,49,97,88,67,30.05,29.89,14,2,14,0.03
2013-5-10,69,56,41,49,42,36,92,62,37,30.10,29.93,15,1,15,0.00
2013-5-11,57,48,38,43,27,16,68,47,24,30.26,30.02,21,4,21,0.00
2013-5-12,64,48,28,30,25,20,89,46,20,30.26,30.06,8,0,8,0.00
2013-5-13,90,67,49,55,43,26,62,42,26,30.07,29.67,19,3,19,0.00
2013-5-14,95,76,55,55,47,33,79,41,16,29.73,29.50,17,3,17,0.00
2013-5-15,82,69,55,52,47,44,70,47,32,29.88,29.72,10,1,10,0.00
2013-5-16,83,65,50,60,51,42,96,66,26,29.83,29.70,16,1,16,0.45
2013-5-17,87,72,60,67,62,59,98,74,43,29.77,29.67,14,2,15,0.06
2013-5-18,84,74,65,67,62,60,84,68,48,29.80,29.57,16,2,18,0.00
2013-5-19,74,66,62,64,62,60,97,87,68,29.64,29.41,23,1,23,0.47
2013-5-20,68,61,56,62,56,53,96,83,61,29.46,29.37,16,2,16,0.01
2013-5-21,62,55,51,56,52,50,96,89,76,29.66,29.44,10,1,10,0.06
2013-5-22,53,51,48,51,48,46,97,91,81,30.00,29.65,15,2,15,0.14
2013-5-23,69,58,45,51,43,32,92,62,29,30.23,30.00,13,1,13,0.00
2013-5-24,68,60,47,53,45,38,72,59,47,30.24,30.00,18,3,18,0.01
2013-5-25,76,64,52,61,54,49,97,72,57,30.04,29.92,19,3,19,2.92
2013-5-26,58,54,51,57,53,50,99,97,90,30.04,29.84,19,2,19,2.43
2013-5-27,69,60,53,62,57,53,100,91,77,29.91,29.64,10,2,12,1.22
2013-5-28,76,63,56,63,58,55,99,87,60,29.71,29.59,8,0,8,0.07
2013-5-29,81,68,59,70,64,58,99,88,59,29.67,29.40,17,2,17,0.15
2013-5-30,78,67,61,66,61,52,96,81,54,29.42,29.34,18,3,18,0.02
2013-5-31,71,63,56,55,52,48,86,68,51,29.51,29.38,16,3,18,0.00
2013-6-1,59,55,51,58,52,44,98,89,76,30.02,29.48,18,4,18,0.05
2013-6-2,70,58,50,46,44,40,85,62,34,30.10,29.95,11,1,11,0.00
2013-6-3,75,62,44,54,48,43,96,63,36,29.97,29.73,24,3,24,0.00
2013-6-4,71,62,56,62,58,51,99,86,64,29.97,29.75,15,1,15,0.52
2013-6-5,64,58,51,56,51,47,89,79,67,29.98,29.92,12,1,12,0.00
2013-6-6,66,59,51,55,52,48,96,80,61,30.00,29.93,8,1,9,0.00
2013-6-7,72,60,44,54,50,43,99,72,47,30.01,29.81,9,0,9,0.00
2013-6-8,60,57,53,59,55,50,99,91,72,29.81,29.61,15,2,15,2.01
2013-6-9,65,60,56,60,58,55,99,93,82,29.81,29.53,17,2,17,0.13
2013-6-10,77,64,48,66,58,47,100,83,59,29.85,29.72,10,1,10,0.01
2013-6-11,90,76,62,69,64,60,97,70,40,29.80,29.61,16,2,16,0.00
2013-6-12,73,67,60,66,60,53,89,78,68,30.00,29.50,18,2,18,0.00
2013-6-13,80,69,53,57,54,51,94,63,39,30.08,29.91,10,1,10,0.00
2013-6-14,83,74,64,71,63,56,83,69,58,29.96,29.66,22,3,22,0.00
2013-6-15,81,71,63,67,63,57,96,78,50,29.92,29.72,13,1,13,0.29
2013-6-16,85,70,52,60,55,47,94,62,32,29.93,29.83,8,0,8,0.00
2013-6-17,80,72,62,60,56,52,85,60,39,29.95,29.87,14,1,14,0.00
2013-6-18,84,71,56,61,56,53,91,62,35,29.99,29.87,13,0,13,0.00
2013-6-19,87,76,64,67,62,55,76,61,45,29.92,29.75,17,2,17,0.00
2013-6-20,89,80,70,73,69,64,83,70,57,29.81,29.67,17,3,17,0.00
2013-6-21,89,79,67,75,70,59,95,75,56,29.82,29.62,15,2,19,0.23
2013-6-22,78,72,65,69,66,63,98,83,68,29.86,29.63,14,1,14,0.60
2013-6-23,82,72,63,69,64,61,97,77,52,29.82,29.55,17,1,17,0.16
2013-6-24,82,71,61,72,66,60,99,86,63,29.84,29.65,13,1,15,0.30
2013-6-25,89,78,69,72,69,65,97,76,48,29.68,29.57,11,1,11,0.00
2013-6-26,90,79,70,72,66,59,94,67,36,29.76,29.56,11,1,11,0.00
2013-6-27,86,78,70,69,63,57,83,63,38,29.89,29.76,13,1,13,0.00
2013-6-28,84,74,63,62,58,53,85,59,36,29.90,29.83,21,3,21,0.00
2013-6-29,78,71,62,61,58,53,86,64,43,29.92,29.82,17,2,17,0.00
2013-6-30,80,68,56,58,53,47,92,62,33,30.09,29.92,10,0,10,0.00
2013-7-1,85,70,54,58,54,51,93,61,35,30.16,30.08,7,0,7,0.00
2013-7-2,85,71,59,63,57,51,91,64,33,30.09,29.99,10,0,10,0.00
2013-7-3,85,72,56,64,59,55,97,65,40,30.00,29.84,10,0,10,0.00
2013-7-4,88,77,63,63,59,56,79,57,37,29.85,29.70,18,2,18,0.00
2013-7-5,89,79,70,68,63,58,70,58,46,29.75,29.67,17,2,17,0.00
2013-7-6,89,81,74,71,66,62,71,62,54,29.71,29.64,14,2,14,0.00
2013-7-7,90,79,69,74,69,65,97,73,57,29.85,29.69,13,1,17,0.07
2013-7-8,92,80,65,74,69,62,97,72,49,29.90,29.78,9,1,9,0.00
2013-7-9,85,78,68,74,69,65,96,74,55,29.91,29.73,11,0,11,0.18
2013-7-10,84,72,63,66,60,52,93,67,35,30.04,29.91,7,0,7,0.00
2013-7-11,86,75,64,66,61,56,79,63,49,30.02,29.82,18,3,18,0.00
2013-7-12,91,80,68,74,68,61,79,67,56,29.86,29.71,25,4,25,0.00
2013-7-13,88,81,74,76,72,66,84,74,66,29.85,29.77,14,2,14,0.00
2013-7-14,78,72,68,71,67,62,92,84,74,30.08,29.84,11,1,12,0.03
2013-7-15,87,77,62,69,66,62,99,72,47,30.13,30.02,9,1,13,0.00
2013-7-16,89,80,69,69,67,64,92,67,44,30.12,30.04,15,1,15,0.00
2013-7-17,92,82,71,72,68,65,82,65,48,30.16,30.01,14,1,14,0.00
2013-7-18,93,84,75,72,70,68,80,65,48,30.01,29.72,15,2,18,0.00
2013-7-19,86,79,66,70,64,57,89,63,39,29.86,29.71,10,1,10,0.00
2013-7-20,85,72,62,69,64,60,97,79,49,29.95,29.79,11,0,13,0.20
2013-7-21,87,77,66,70,66,60,95,71,54,29.85,29.66,8,1,8,0.00
2013-7-22,86,77,67,72,66,60,93,71,48,29.82,29.61,12,2,12,0.00
2013-7-23,78,69,61,61,58,56,87,70,52,29.97,29.79,8,1,8,0.00
2013-7-24,84,70,56,63,59,55,97,71,48,30.03,29.92,8,0,8,0.00
2013-7-25,85,75,66,71,65,61,85,73,57,29.94,29.83,8,1,8,0.00
2013-7-26,73,65,56,64,54,48,87,69,46,30.08,29.90,16,2,16,0.00
2013-7-27,71,59,48,51,47,44,90,66,42,30.10,29.98,13,1,13,0.00
2013-7-28,77,62,45,51,47,43,95,62,36,30.03,29.96,7,0,7,0.00
2013-7-29,73,63,55,59,54,50,84,74,56,30.01,29.96,14,1,14,0.00
2013-7-30,80,70,62,67,63,59,95,79,58,30.03,29.98,8,0,8,0.00
2013-7-31,82,70,58,65,61,57,97,76,47,30.08,29.98,5,0,7,0.01
2013-8-1,88,72,58,72,64,57,98,77,48,30.02,29.80,11,0,11,0.03
2013-8-2,72,66,58,64,60,56,95,81,65,30.00,29.80,10,0,10,0.32
2013-8-3,80,66,52,59,54,51,98,71,41,30.16,30.00,9,0,9,0.00
2013-8-4,78,67,56,64,58,50,94,73,53,30.18,29.89,14,1,14,0.00
2013-8-5,85,74,65,71,66,60,98,77,46,29.90,29.76,11,1,11,0.00
2013-8-6,86,74,63,69,65,60,98,75,51,29.80,29.66,11,1,11,0.03
2013-8-7,82,70,60,63,60,58,94,71,49,29.94,29.76,8,0,8,0.00
2013-8-8,80,69,60,68,62,56,94,81,65,29.95,29.87,10,1,10,0.06
2013-8-9,80,69,55,64,58,54,99,73,45,30.09,29.95,5,0,7,0.01
2013-8-10,74,66,58,67,61,54,97,82,67,30.12,29.98,10,0,10,0.35
2013-8-11,80,70,62,68,65,61,99,85,65,30.03,29.93,4,0,8,1.11
2013-8-12,80,69,59,64,61,57,99,77,55,30.05,29.97,7,0,7,0.01
2013-8-13,78,66,54,61,56,47,98,73,44,30.13,30.04,8,0,8,0.00
2013-8-14,70,63,56,62,56,51,92,80,71,30.14,30.04,9,0,9,0.00
2013-8-15,67,63,57,61,59,56,97,88,81,30.09,30.01,9,1,9,0.00
2013-8-16,70,63,55,62,59,54,99,87,75,30.13,30.07,12,1,12,0.01
2013-8-17,78,69,59,66,61,56,93,77,61,30.10,30.00,15,2,15,0.00
2013-8-18,80,70,60,66,61,56,88,74,61,30.03,29.91,17,2,17,0.00
2013-8-19,87,76,64,74,68,61,91,78,65,29.95,29.77,13,1,13,0.00
2013-8-20,90,79,67,77,72,66,98,82,55,29.79,29.73,11,1,11,0.00
2013-8-21,82,76,73,75,72,69,94,85,75,29.91,29.72,10,1,10,0.02
2013-8-22,85,75,66,72,68,65,100,79,57,30.01,29.90,9,1,9,0.01
2013-8-23,87,77,67,76,69,64,94,79,63,30.01,29.85,16,2,16,0.00
2013-8-24,90,79,71,78,73,67,95,81,67,29.90,29.79,22,4,22,0.29
2013-8-25,92,82,75,79,74,71,88,77,63,29.88,29.83,17,2,17,0.00
2013-8-26,93,83,75,79,74,69,83,74,61,29.87,29.73,15,2,15,0.00
2013-8-27,95,84,74,79,73,67,91,71,56,29.79,29.69,10,1,10,0.00
2013-8-28,94,84,75,81,76,71,96,79,58,29.88,29.78,12,1,12,0.00
2013-8-29,92,82,68,77,73,66,94,75,55,29.86,29.75,13,1,13,0.00
2013-8-30,88,80,71,76,71,67,95,76,56,29.84,29.76,9,1,9,0.00
2013-8-31,91,77,64,76,70,64,99,80,56,29.80,29.65,27,0,27,0.35
2013-9-1,78,69,61,68,61,57,96,76,56,29.98,29.75,14,2,14,0.00
2013-9-2,79,65,50,57,55,50,98,74,41,30.06,29.96,7,0,7,0.01
2013-9-3,85,70,56,69,61,52,89,74,57,30.00,29.89,13,1,13,0.00
2013-9-4,90,76,63,70,66,62,98,73,42,30.03,29.93,9,1,9,0.00
2013-9-5,84,76,71,71,66,63,89,73,56,30.05,29.95,14,2,14,0.01
2013-9-6,91,78,67,74,68,62,91,74,50,29.97,29.75,10,1,12,0.00
2013-9-7,91,78,70,74,71,68,97,80,53,29.87,29.73,10,0,10,0.00
2013-9-8,84,76,70,74,70,67,93,83,71,29.89,29.71,12,1,12,0.00
2013-9-9,93,79,69,72,69,65,98,74,47,29.74,29.60,11,1,11,0.11
2013-9-10,78,72,67,68,66,64,97,81,64,29.96,29.73,6,0,6,0.00
2013-9-11,86,73,62,66,62,55,98,70,40,30.06,29.95,8,1,8,0.00
2013-9-12,78,68,57,55,51,47,81,56,35,30.19,30.06,10,1,10,0.00
2013-9-13,76,62,47,54,51,46,98,69,42,30.19,29.99,10,1,10,0.00
2013-9-14,71,62,54,58,54,49,84,74,60,30.00,29.73,14,2,14,0.01
2013-9-15,66,61,51,60,55,49,95,82,70,30.24,29.73,14,1,15,0.00
2013-9-16,70,58,46,54,50,46,99,79,53,30.32,30.12,12,1,12,0.00
2013-9-17,66,60,56,65,58,51,98,91,83,30.13,29.77,14,2,14,0.01
2013-9-18,90,76,66,72,69,65,98,80,55,29.76,29.52,17,2,17,0.00
2013-9-19,76,67,54,69,60,47,94,79,47,29.90,29.49,20,2,20,0.09
2013-9-20,64,54,43,48,45,41,92,73,47,29.99,29.90,16,2,16,0.00
2013-9-21,76,57,37,52,45,36,98,68,35,29.99,29.79,11,1,11,0.00
2013-9-22,84,69,54,56,53,50,89,60,35,29.79,29.63,19,3,19,0.00
2013-9-23,79,67,57,55,52,49,79,60,37,29.75,29.63,14,3,20,0.00
2013-9-24,76,64,56,58,54,51,95,72,48,29.86,29.75,7,0,7,0.00
2013-9-25,79,65,52,60,56,51,99,75,49,29.85,29.65,16,2,16,0.00
2013-9-26,86,73,62,62,60,58,87,66,43,29.69,29.60,21,4,21,0.00
2013-9-27,80,71,60,65,61,53,88,73,57,29.68,29.60,16,2,16,0.16
2013-9-28,64,56,50,55,47,40,97,74,44,29.93,29.57,19,2,19,0.35
2013-9-29,81,63,48,52,45,41,80,55,27,29.93,29.67,14,2,14,0.00
2013-9-30,85,70,57,55,49,45,69,50,28,29.67,29.49,16,2,16,0.00
2013-10-1,77,64,49,54,44,32,81,53,21,29.94,29.52,12,1,12,0.00
2013-10-2,80,63,44,67,51,36,96,68,41,29.95,29.67,14,1,14,0.14
2013-10-3,59,56,54,56,55,52,98,94,90,29.85,29.74,10,1,10,0.14
2013-10-4,62,57,48,61,55,44,98,94,82,29.85,29.60,15,3,15,0.01
2013-10-5,48,43,37,44,38,33,92,84,74,29.77,29.67,14,2,14,0.00
2013-10-6,58,48,43,47,42,36,97,81,45,29.97,29.76,16,3,16,0.01
2013-10-7,75,56,41,50,44,38,93,69,36,29.99,29.85,7,0,7,0.00
2013-10-8,78,64,52,49,46,43,71,54,32,29.85,29.67,23,3,23,0.00
2013-10-9,78,65,52,54,50,47,82,60,41,29.90,29.79,14,2,14,0.00
2013-10-10,79,67,56,58,54,50,84,64,45,29.87,29.63,22,3,22,0.00
2013-10-11,74,63,49,58,52,42,84,69,39,29.73,29.38,31,4,31,0.00
2013-10-12,61,50,37,42,35,28,80,59,29,30.24,29.73,16,2,16,0.00
2013-10-13,66,49,30,38,34,28,97,62,32,30.42,30.24,11,1,11,0.00
2013-10-14,51,47,44,50,44,35,98,90,55,30.28,29.64,22,3,22,2.23
2013-10-15,52,46,43,52,45,40,98,94,87,30.00,29.61,16,3,16,0.06
2013-10-16,55,43,33,41,37,32,98,81,49,30.06,29.91,10,1,10,0.00
2013-10-17,53,41,32,44,37,31,98,86,72,30.03,29.84,13,2,13,0.00
2013-10-18,52,40,31,37,33,28,92,76,44,30.09,29.91,11,1,11,0.00
2013-10-19,53,43,34,41,36,32,94,78,59,29.91,29.76,15,1,15,0.02
2013-10-20,54,44,38,44,37,32,89,77,64,30.00,29.63,17,3,17,0.01
2013-10-21,49,40,34,35,31,28,89,72,48,30.04,29.93,11,1,11,0.00
2013-10-22,41,36,31,34,32,29,96,86,69,30.11,29.91,8,1,8,0.08
2013-10-23,40,35,28,36,32,27,97,88,72,30.22,30.06,9,1,9,0.07
2013-10-24,47,36,27,33,29,25,93,77,49,30.37,30.22,14,1,14,0.00
2013-10-25,63,44,25,43,35,23,95,74,48,30.37,29.93,15,2,15,0.01
2013-10-26,47,40,28,41,31,26,92,72,51,30.22,29.95,14,2,14,0.00
2013-10-27,62,44,31,41,33,27,86,66,43,30.08,29.81,9,1,9,0.00
2013-10-28,44,38,32,33,30,27,87,74,64,30.35,30.08,14,2,14,0.02
2013-10-29,42,38,34,41,36,30,98,92,80,30.30,30.02,14,1,15,0.29
2013-10-30,42,41,39,42,40,38,99,98,96,30.03,29.78,6,0,6,0.02
2013-10-31,46,40,36,40,37,34,97,89,76,29.74,29.47,9,1,10,0.00
2013-11-1,53,44,39,42,38,36,92,82,62,29.98,29.53,16,3,18,0.01
2013-11-2,55,42,32,38,34,29,92,76,44,30.12,29.98,9,1,9,0.00
2013-11-3,56,47,36,38,35,31,82,63,47,30.00,29.64,25,4,25,0.00
2013-11-4,50,42,30,40,34,27,92,76,50,30.15,29.68,14,1,14,0.03
2013-11-5,38,32,28,32,29,26,96,89,67,30.21,30.06,10,0,10,0.00
2013-11-6,33,29,22,30,27,21,96,93,85,30.25,30.13,7,0,7,0.40
2013-11-7,37,29,19,30,25,17,97,86,70,30.42,30.22,9,1,9,0.05
2013-11-8,52,41,26,43,34,23,90,77,68,30.22,29.62,23,3,23,0.01
2013-11-9,48,40,29,37,32,25,88,74,52,30.35,29.80,16,3,16,0.00
2013-11-10,49,35,20,35,28,18,95,78,55,30.39,30.09,12,1,13,0.00
2013-11-11,39,20,9,35,14,5,89,76,65,30.85,30.11,13,3,14,0.00
2013-11-12,33,20,4,16,10,1,92,69,46,30.91,30.48,10,1,10,0.00
2013-11-13,61,41,25,37,28,16,77,63,40,30.48,29.90,14,2,14,0.00
2013-11-14,56,41,29,43,35,27,94,80,55,29.91,29.82,13,1,13,0.00
2013-11-15,56,40,25,43,34,24,98,80,58,29.85,29.51,17,2,17,0.00
2013-11-16,55,44,37,47,39,34,98,83,64,29.51,29.20,11,1,11,0.00
2013-11-17,47,41,33,40,36,29,96,84,72,29.99,29.34,15,2,15,0.00
2013-11-18,47,34,25,32,28,22,92,79,54,30.23,29.99,8,1,8,0.00
2013-11-19,57,45,32,37,31,27,86,60,43,30.14,29.73,22,5,22,0.00
2013-11-20,52,44,31,36,32,28,90,64,45,30.03,29.70,22,3,22,0.00
2013-11-21,32,23,16,29,17,10,90,79,67,30.68,30.03,17,5,17,0.00
2013-11-22,32,18,4,16,10,1,86,72,43,30.76,30.59,13,2,13,0.00
2013-11-23,18,11,4,8,3,0,83,70,48,30.96,30.75,9,1,9,0.00
2013-11-24,38,25,12,25,15,3,74,66,54,30.75,30.07,20,5,20,0.00
2013-11-25,40,32,24,29,25,20,87,76,57,30.21,30.01,14,2,14,0.00
2013-11-26,30,22,11,24,12,5,81,65,48,30.47,30.20,17,4,17,0.00
2013-11-27,31,19,6,19,11,3,88,71,52,30.48,30.00,19,2,19,0.00
2013-11-28,28,22,14,20,16,11,88,76,62,30.51,30.11,13,2,13,0.00
2013-11-29,39,26,15,25,18,10,82,74,57,30.51,30.09,19,4,19,0.00
2013-11-30,48,33,21,33,26,18,94,76,51,30.20,30.06,8,1,8,0.00
2013-12-1,37,32,26,27,25,23,88,77,66,30.20,29.83,7,1,7,0.00
2013-12-2,49,38,31,35,30,26,85,75,58,29.84,29.49,8,1,9,0.00
2013-12-3,33,30,26,31,28,24,96,93,83,29.77,29.57,8,1,10,0.00
2013-12-4,26,16,8,24,13,5,94,89,84,30.02,29.67,16,4,19,0.00
2013-12-5,9,2,-5,5,-3,-10,86,79,74,30.53,30.03,15,4,15,0.00
2013-12-6,-2,-6,-11,-7,-11,-16,82,78,74,30.83,30.53,9,2,10,0.00
2013-12-7,3,-6,-14,-1,-10,-18,85,79,69,30.87,30.56,7,0,7,0.00
2013-12-8,14,8,0,9,4,-4,89,85,80,30.56,30.14,7,1,9,0.00
2013-12-9,22,2,-8,16,-4,-12,85,78,71,30.34,29.95,13,3,13,0.00
2013-12-10,23,13,3,18,7,-2,90,79,69,30.24,29.95,21,2,21,0.00
2013-12-11,11,0,-10,7,-6,-14,83,76,69,30.71,30.40,13,2,13,0.00
2013-12-12,32,19,10,19,13,7,90,79,60,30.40,30.09,9,0,9,0.00
2013-12-13,21,14,8,15,11,5,92,85,77,30.30,30.06,13,1,13,0.00
2013-12-14,13,10,6,8,6,3,89,84,78,30.31,30.19,10,1,10,0.00
2013-12-15,12,10,8,9,6,4,88,83,77,30.22,30.08,8,1,8,0.00
2013-12-16,32,16,6,27,12,2,89,85,80,30.14,30.01,12,1,12,0.00
2013-12-17,34,27,1,28,22,-6,91,79,65,30.63,30.02,7,3,15,0.00
2013-12-18,42,31,22,31,24,16,92,77,63,30.02,29.72,11,1,13,0.00
2013-12-19,28,13,8,25,9,3,93,83,81,30.11,29.84,10,2,13,0.00
2013-12-20,13,10,8,9,6,4,89,84,81,30.12,29.93,10,1,10,0.00
2013-12-21,21,13,5,14,9,2,92,85,75,30.06,29.88,8,1,9,0.00
2013-12-22,11,4,-6,7,0,-10,86,81,75,30.50,30.06,12,3,12,0.00
2013-12-23,-3,-9,-14,-10,-16,-21,81,72,61,30.72,30.50,10,2,10,0.00
2013-12-24,21,9,-13,19,4,-17,92,81,69,30.62,30.15,21,3,21,0.00
2013-12-25,33,24,13,29,20,11,94,86,70,30.28,30.14,17,2,17,0.00
2013-12-26,35,28,18,27,23,15,92,82,71,30.24,30.07,10,1,10,0.00
2013-12-27,43,30,13,34,25,10,97,84,68,30.22,30.01,8,1,10,0.00
2013-12-28,46,30,4,34,24,-2,98,76,59,30.25,29.69,26,4,26,0.00
2013-12-29,5,-2,-7,-1,-11,-17,77,64,56,30.52,30.25,21,4,21,0.00
2013-12-30,18,8,0,13,3,-8,86,79,65,30.36,30.11,14,2,14,0.00
2013-12-31,8,4,-3,4,0,-7,85,81,78,30.39,30.25,12,2,12,0.00
2014-1-1,4,0,-6,-2,-6,-10,84,77,68,30.53,30.36,9,1,10,0.00
2014-1-2,4,-4,-11,-4,-9,-15,84,78,69,30.62,30.40,11,1,11,0.00